createdAt,value
2023-04-11T00:01:14.929Z,99407.72
2023-04-11T00:03:41.763Z,99386.63
2023-04-11T00:06:08.713Z,99391.34
2023-04-11T00:08:35.315Z,99391.53
2023-04-11T00:11:01.937Z,99394.88
2023-04-11T00:13:28.570Z,99396.28
2023-04-11T00:15:55.897Z,99418.72
2023-04-11T00:18:23.085Z,99420.78
2023-04-11T00:20:49.758Z,99410.84
2023-04-11T00:23:16.464Z,99419.25
2023-04-11T00:25:43.152Z,99431.16
2023-04-11T00:28:10.577Z,99435.28
2023-04-11T00:30:37.865Z,99437.50
2023-04-11T00:33:04.621Z,99435.94
2023-04-11T00:35:34.727Z,99434.84
2023-04-11T00:38:02.216Z,99434.31
2023-04-11T00:40:29.137Z,99428.31
2023-04-11T00:42:56.692Z,99423.63
2023-04-11T00:45:23.377Z,99427.53
2023-04-11T00:47:50.579Z,99430.59
2023-04-11T00:50:18.341Z,99424.00
2023-04-11T00:52:48.400Z,99432.25
2023-04-11T00:55:15.163Z,99432.91
2023-04-11T00:57:42.944Z,99433.28
2023-04-11T01:00:10.843Z,99433.50
2023-04-11T01:02:38.811Z,99427.16
2023-04-11T01:05:05.901Z,99437.63
2023-04-11T01:07:34.397Z,99420.97
2023-04-11T01:10:01.560Z,99426.94
2023-04-11T01:12:29.615Z,99431.25
2023-04-11T01:14:56.642Z,99430.59
2023-04-11T01:17:25.700Z,99435.09
2023-04-11T01:19:52.507Z,99421.75
2023-04-11T01:22:21.515Z,99412.75
2023-04-11T01:24:48.296Z,99415.91
2023-04-11T01:27:15.127Z,99419.38
2023-04-11T01:29:41.677Z,99418.38
2023-04-11T01:32:08.500Z,99408.28
2023-04-11T01:34:36.223Z,99411.16
2023-04-11T01:37:02.835Z,99425.34
2023-04-11T01:39:29.885Z,99425.13
2023-04-11T01:41:57.819Z,99410.34
2023-04-11T01:44:25.627Z,99407.25
2023-04-11T01:46:52.384Z,99414.03
2023-04-11T01:49:19.038Z,99417.06
2023-04-11T01:51:47.213Z,99405.38
2023-04-11T01:54:13.906Z,99415.25
2023-04-11T01:56:40.487Z,99404.19
2023-04-11T01:59:07.143Z,99401.66
2023-04-11T02:01:34.530Z,99399.03
2023-04-11T02:04:01.708Z,99397.78
2023-04-11T02:06:28.517Z,99392.03
2023-04-11T02:08:55.323Z,99384.69
2023-04-11T02:11:22.210Z,99390.66
2023-04-11T02:13:49.334Z,99384.06
2023-04-11T02:16:18.093Z,99378.31
2023-04-11T02:18:46.286Z,99376.72
2023-04-11T02:21:13.242Z,99391.72
2023-04-11T02:23:39.991Z,99380.97
2023-04-11T02:26:08.759Z,99376.25
2023-04-11T02:28:36.663Z,99370.88
2023-04-11T02:31:03.809Z,99362.28
2023-04-11T02:33:30.771Z,99357.44
2023-04-11T02:35:57.491Z,99360.78
2023-04-11T02:38:24.141Z,99362.84
2023-04-11T02:40:51.161Z,99352.94
2023-04-11T02:43:18.808Z,99345.38
2023-04-11T02:45:45.468Z,99343.50
2023-04-11T02:48:14.005Z,99349.25
2023-04-11T02:50:43.926Z,99392.22
2023-04-11T02:53:11.388Z,99387.53
2023-04-11T02:55:43.801Z,99380.00
2023-04-11T02:58:10.692Z,99383.31
2023-04-11T03:00:38.116Z,99376.72
2023-04-11T03:03:08.166Z,99371.66
2023-04-11T03:05:40.402Z,99380.28
2023-04-11T03:08:09.171Z,99370.81
2023-04-11T03:10:38.868Z,99378.84
2023-04-11T03:13:09.219Z,99364.28
2023-04-11T03:15:36.252Z,99365.75
2023-04-11T03:18:07.087Z,99372.69
2023-04-11T03:20:36.876Z,99361.22
2023-04-11T03:23:03.729Z,99365.28
2023-04-11T03:25:30.565Z,99372.97
2023-04-11T03:27:57.862Z,99363.94
2023-04-11T03:30:24.706Z,99356.81
2023-04-11T03:32:52.985Z,99360.25
2023-04-11T03:35:20.770Z,99357.00
2023-04-11T03:37:49.505Z,99346.16
2023-04-11T03:40:18.513Z,99355.22
2023-04-11T03:42:50.609Z,99352.19
2023-04-11T03:45:21.502Z,99354.44
2023-04-11T03:47:49.630Z,99351.75
2023-04-11T03:50:19.893Z,99342.16
2023-04-11T03:52:50.012Z,99346.03
2023-04-11T03:55:16.850Z,99346.66
2023-04-11T03:57:43.631Z,99348.91
2023-04-11T04:00:11.345Z,99341.16
2023-04-11T04:02:54.035Z,99349.31
2023-04-11T04:05:20.968Z,99342.34
2023-04-11T04:07:48.087Z,99324.97
2023-04-11T04:10:22.499Z,99324.34
2023-04-11T04:12:53.259Z,99324.34
2023-04-11T04:15:23.204Z,99310.22
2023-04-11T04:17:51.445Z,99307.97
2023-04-11T04:20:38.028Z,99310.00
2023-04-11T04:23:04.892Z,99300.78
2023-04-11T04:25:50.228Z,99301.63
2023-04-11T04:28:22.239Z,99299.56
2023-04-11T04:30:54.382Z,99294.81
2023-04-11T04:33:23.049Z,99290.31
2023-04-11T04:35:58.157Z,99283.97
2023-04-11T04:38:29.033Z,99302.22
2023-04-11T04:40:58.656Z,99296.28
2023-04-11T04:43:27.405Z,99288.28
2023-04-11T04:46:05.902Z,99301.63
2023-04-11T04:48:40.447Z,99306.56
2023-04-11T04:51:07.759Z,99312.28
2023-04-11T04:53:38.827Z,99315.56
2023-04-11T04:56:08.071Z,99295.47
2023-04-11T04:58:38.991Z,99302.63
2023-04-11T05:01:09.144Z,99293.84
2023-04-11T05:03:38.691Z,99300.72
2023-04-11T05:06:10.291Z,99294.16
2023-04-11T05:08:38.292Z,99295.19
2023-04-11T05:11:07.134Z,99296.81
2023-04-11T05:13:35.345Z,99287.59
2023-04-11T05:16:03.326Z,99293.13
2023-04-11T05:18:31.154Z,99287.00
2023-04-11T05:20:58.124Z,99285.16
2023-04-11T05:23:30.979Z,99277.22
2023-04-11T05:26:01.239Z,99275.78
2023-04-11T05:28:31.517Z,99312.47
2023-04-11T05:30:58.834Z,99334.56
2023-04-11T05:33:25.583Z,99337.41
2023-04-11T05:35:52.459Z,99321.00
2023-04-11T05:38:19.746Z,99331.25
2023-04-11T05:40:46.730Z,99343.91
2023-04-11T05:43:15.272Z,99353.47
2023-04-11T05:45:42.672Z,99363.53
2023-04-11T05:48:09.504Z,99352.31
2023-04-11T05:50:36.490Z,99349.22
2023-04-11T05:53:03.430Z,99348.22
2023-04-11T05:55:30.026Z,99339.06
2023-04-11T05:57:56.660Z,99339.63
2023-04-11T06:00:24.286Z,99344.25
2023-04-11T06:02:51.157Z,99351.66
2023-04-11T06:05:18.049Z,99350.19
2023-04-11T06:07:45.400Z,99344.72
2023-04-11T06:10:12.061Z,99347.78
2023-04-11T06:12:38.731Z,99351.03
2023-04-11T06:15:06.186Z,99356.81
2023-04-11T06:17:32.842Z,99357.22
2023-04-11T06:20:04.762Z,99356.41
2023-04-11T06:22:32.972Z,99356.22
2023-04-11T06:24:59.646Z,99359.94
2023-04-11T06:27:26.762Z,99362.81
2023-04-11T06:29:53.501Z,99362.47
2023-04-11T06:32:20.542Z,99369.47
2023-04-11T06:34:47.153Z,99369.25
2023-04-11T06:37:14.774Z,99371.94
2023-04-11T06:39:41.395Z,99374.28
2023-04-11T06:42:08.069Z,99374.72
2023-04-11T06:44:35.035Z,99375.94
2023-04-11T06:47:01.916Z,99371.88
2023-04-11T06:49:28.813Z,99371.09
2023-04-11T06:51:56.087Z,99368.19
2023-04-11T06:54:23.041Z,99374.97
2023-04-11T06:56:51.770Z,99377.63
2023-04-11T06:59:21.981Z,99382.97
2023-04-11T07:01:49.897Z,99377.84
2023-04-11T07:04:21.210Z,99383.81
2023-04-11T07:06:48.020Z,99397.75
2023-04-11T07:09:14.780Z,99397.31
2023-04-11T07:11:41.583Z,99409.00
2023-04-11T07:14:08.204Z,99397.09
2023-04-11T07:16:34.867Z,99406.94
2023-04-11T07:19:03.113Z,99407.56
2023-04-11T07:21:31.968Z,99413.47
2023-04-11T07:24:00.404Z,99416.69
2023-04-11T07:26:32.137Z,99413.13
2023-04-11T07:29:02.232Z,99420.97
2023-04-11T07:31:29.051Z,99429.19
2023-04-11T07:33:55.965Z,99429.63
2023-04-11T07:36:22.846Z,99443.22
2023-04-11T07:38:49.615Z,99438.94
2023-04-11T07:41:16.391Z,99429.44
2023-04-11T07:43:43.220Z,99445.81
2023-04-11T07:46:10.256Z,99445.03
2023-04-11T07:48:37.028Z,99455.00
2023-04-11T07:51:03.712Z,99465.72
2023-04-11T07:53:34.543Z,99461.22
2023-04-11T07:56:01.395Z,99470.34
2023-04-11T07:58:28.678Z,99472.53
2023-04-11T08:00:55.467Z,99479.38
2023-04-11T08:03:23.656Z,99479.22
2023-04-11T08:05:50.756Z,99499.53
2023-04-11T08:08:17.470Z,99502.72
2023-04-11T08:10:44.118Z,99498.81
2023-04-11T08:13:10.744Z,99500.00
2023-04-11T08:15:38.876Z,99505.47
2023-04-11T08:18:05.913Z,99503.75
2023-04-11T08:20:32.620Z,99521.16
2023-04-11T08:22:59.529Z,99529.84
2023-04-11T08:25:26.385Z,99535.53
2023-04-11T08:27:53.110Z,99528.78
2023-04-11T08:30:20.364Z,99528.94
2023-04-11T08:32:47.109Z,99541.72
2023-04-11T08:35:14.637Z,99536.78
2023-04-11T08:37:41.523Z,99539.25
2023-04-11T08:40:09.149Z,99538.03
2023-04-11T08:42:36.226Z,99545.34
2023-04-11T08:45:05.201Z,99552.91
2023-04-11T08:47:31.996Z,99548.22
2023-04-11T08:49:58.697Z,99556.25
2023-04-11T08:52:25.748Z,99562.84
2023-04-11T08:54:55.158Z,99576.44
2023-04-11T08:57:34.978Z,99579.63
2023-04-11T09:00:19.280Z,99580.72
2023-04-11T09:03:07.795Z,99586.69
2023-04-11T09:05:39.975Z,99590.06
2023-04-11T09:08:08.689Z,99599.63
2023-04-11T09:10:36.472Z,99596.09
2023-04-11T09:13:18.556Z,99616.91
2023-04-11T09:15:45.405Z,99628.19
2023-04-11T09:18:31.112Z,99623.56
2023-04-11T09:21:00.657Z,99639.84
2023-04-11T09:23:27.529Z,99639.25
2023-04-11T09:25:54.134Z,99649.22
2023-04-11T09:28:20.710Z,99636.00
2023-04-11T09:30:55.085Z,99656.47
2023-04-11T09:33:28.395Z,99668.09
2023-04-11T09:35:56.888Z,99659.94
2023-04-11T09:38:31.842Z,99661.97
2023-04-11T09:40:59.976Z,99676.00
2023-04-11T09:43:26.945Z,99676.22
2023-04-11T09:46:18.402Z,99684.50
2023-04-11T09:49:01.806Z,99684.53
2023-04-11T09:51:35.978Z,99684.50
2023-04-11T09:54:04.741Z,99681.16
2023-04-11T09:56:34.278Z,99702.81
2023-04-11T09:59:02.811Z,99701.09
2023-04-11T10:01:29.496Z,99708.66
2023-04-11T10:03:57.168Z,99710.53
2023-04-11T10:06:34.140Z,99702.22
2023-04-11T10:09:12.602Z,99712.88
2023-04-11T10:11:46.142Z,99711.31
2023-04-11T10:14:37.853Z,99715.28
2023-04-11T10:17:18.936Z,99709.59
2023-04-11T10:19:48.599Z,99717.25
2023-04-11T10:22:43.968Z,99715.38
2023-04-11T10:25:21.659Z,99719.63
2023-04-11T10:27:50.237Z,99724.78
2023-04-11T10:30:17.084Z,99722.38
2023-04-11T10:33:21.365Z,99713.09
2023-04-11T10:36:10.340Z,99722.03
2023-04-11T10:38:37.561Z,99722.34
2023-04-11T10:41:28.505Z,99716.88
2023-04-11T10:44:21.465Z,99715.19
2023-04-11T10:46:54.118Z,99708.25
2023-04-11T10:49:40.416Z,99712.50
2023-04-11T10:52:20.695Z,99728.22
2023-04-11T10:54:48.783Z,99719.97
2023-04-11T10:57:15.468Z,99720.75
2023-04-11T10:59:42.411Z,99722.50
2023-04-11T11:02:09.174Z,99724.50
2023-04-11T11:04:41.196Z,99725.63
2023-04-11T11:07:12.605Z,99715.19
2023-04-11T11:09:39.518Z,99724.13
2023-04-11T11:12:13.154Z,99731.25
2023-04-11T11:14:41.783Z,99715.72
2023-04-11T11:17:09.062Z,99732.31
2023-04-11T11:19:36.113Z,99731.97
2023-04-11T11:22:06.753Z,99742.59
2023-04-11T11:24:33.485Z,99739.00
2023-04-11T11:27:00.560Z,99744.13
2023-04-11T11:29:31.126Z,99735.81
2023-04-11T11:31:59.101Z,99736.97
2023-04-11T11:34:30.936Z,99736.41
2023-04-11T11:36:59.125Z,99745.84
2023-04-11T11:39:26.080Z,99746.19
2023-04-11T11:41:53.529Z,99750.41
2023-04-11T11:44:23.917Z,99754.44
2023-04-11T11:47:12.590Z,99758.69
2023-04-11T11:49:55.422Z,99759.22
2023-04-11T11:52:41.934Z,99750.41
2023-04-11T11:55:17.893Z,99751.25
2023-04-11T11:57:48.951Z,99746.94
2023-04-11T12:00:23.897Z,99747.53
2023-04-11T12:02:55.092Z,99765.19
2023-04-11T12:05:24.622Z,99748.69
2023-04-11T12:07:59.429Z,99758.28
2023-04-11T12:10:36.098Z,99758.97
2023-04-11T12:13:02.755Z,99755.47
2023-04-11T12:15:29.486Z,99758.44
2023-04-11T12:17:56.541Z,99761.50
2023-04-11T12:20:24.377Z,99770.69
2023-04-11T12:22:52.273Z,99786.84
2023-04-11T12:25:21.069Z,99783.56
2023-04-11T12:27:48.647Z,99798.41
2023-04-11T12:30:15.440Z,99805.41
2023-04-11T12:32:42.738Z,99798.63
2023-04-11T12:35:10.321Z,99800.31
2023-04-11T12:37:37.525Z,99799.88
2023-04-11T12:40:12.417Z,99789.91
2023-04-11T12:42:49.572Z,99790.53
2023-04-11T12:45:22.320Z,99790.41
2023-04-11T12:47:49.064Z,99792.66
2023-04-11T12:50:15.818Z,99796.19
2023-04-11T12:52:42.583Z,99795.75
2023-04-11T12:55:09.832Z,99804.94
2023-04-11T12:57:36.741Z,99797.38
2023-04-11T13:00:07.362Z,99807.84
2023-04-11T13:02:42.295Z,99805.59
2023-04-11T13:05:11.945Z,99797.34
2023-04-11T13:07:39.361Z,99803.84
2023-04-11T13:10:09.229Z,99795.44
2023-04-11T13:12:41.176Z,99801.59
2023-04-11T13:15:09.713Z,99800.25
2023-04-11T13:17:36.509Z,99822.25
2023-04-11T13:20:07.500Z,99820.16
2023-04-11T13:22:34.152Z,99818.81
2023-04-11T13:25:00.923Z,99818.81
2023-04-11T13:27:27.672Z,99818.19
2023-04-11T13:29:54.346Z,99821.72
2023-04-11T13:32:21.126Z,99828.22
2023-04-11T13:34:47.862Z,99825.91
2023-04-11T13:37:15.929Z,99835.47
2023-04-11T13:39:42.719Z,99837.22
2023-04-11T13:42:10.172Z,99827.00
2023-04-11T13:44:36.838Z,99827.00
2023-04-11T13:47:03.728Z,99836.41
2023-04-11T13:49:30.328Z,99835.84
2023-04-11T13:51:58.963Z,99825.19
2023-04-11T13:54:26.177Z,99834.94
2023-04-11T13:56:52.845Z,99845.16
2023-04-11T13:59:19.473Z,99838.78
2023-04-11T14:01:46.183Z,99840.06
2023-04-11T14:04:13.137Z,99843.19
2023-04-11T14:06:39.866Z,99839.28
2023-04-11T14:09:06.604Z,99843.75
2023-04-11T14:11:33.476Z,99849.97
2023-04-11T14:14:00.585Z,99856.31
2023-04-11T14:16:27.306Z,99850.44
2023-04-11T14:18:53.982Z,99857.94
2023-04-11T14:21:21.542Z,99851.38
2023-04-11T14:23:48.825Z,99861.00
2023-04-11T14:26:18.257Z,99863.22
2023-04-11T14:28:45.381Z,99869.28
2023-04-11T14:31:12.081Z,99874.09
2023-04-11T14:33:38.845Z,99870.47
2023-04-11T14:36:05.721Z,99867.78
2023-04-11T14:38:32.396Z,99877.84
2023-04-11T14:40:59.160Z,99876.09
2023-04-11T14:43:26.849Z,99871.81
2023-04-11T14:45:57.829Z,99880.84
2023-04-11T14:48:26.213Z,99876.53
2023-04-11T14:50:54.739Z,99888.44
2023-04-11T14:53:27.754Z,99886.47
2023-04-11T14:55:54.314Z,99890.28
2023-04-11T14:58:21.045Z,99888.81
2023-04-11T15:00:47.780Z,99898.06
2023-04-11T15:03:14.615Z,99896.34
2023-04-11T15:05:41.443Z,99901.13
2023-04-11T15:08:08.230Z,99901.13
2023-04-11T15:10:34.959Z,99902.84
2023-04-11T15:13:01.735Z,99908.81
2023-04-11T15:15:28.534Z,99910.66
2023-04-11T15:18:20.384Z,99916.25
2023-04-11T15:20:47.045Z,99912.47
2023-04-11T15:23:18.423Z,99918.06
2023-04-11T15:25:46.756Z,99902.91
2023-04-11T15:28:13.417Z,99912.66
2023-04-11T15:30:49.402Z,99921.84
2023-04-11T15:33:16.508Z,99917.53
2023-04-11T15:35:44.024Z,99913.84
2023-04-11T15:38:14.451Z,99912.81
2023-04-11T15:40:41.243Z,99918.50
2023-04-11T15:43:08.949Z,99918.75
2023-04-11T15:45:37.488Z,99918.75
2023-04-11T15:48:04.317Z,99917.97
2023-04-11T15:50:32.226Z,99920.81
2023-04-11T15:52:59.269Z,99914.97
2023-04-11T15:55:25.841Z,99919.75
2023-04-11T15:57:52.597Z,99918.56
2023-04-11T16:00:22.158Z,99915.25
2023-04-11T16:02:50.391Z,99917.84
2023-04-11T16:05:17.489Z,99911.72
2023-04-11T16:07:44.405Z,99917.88
2023-04-11T16:10:11.160Z,99917.09
2023-04-11T16:12:37.852Z,99907.75
2023-04-11T16:15:05.665Z,99910.44
2023-04-11T16:17:32.962Z,99912.66
2023-04-11T16:20:00.212Z,99916.56
2023-04-11T16:22:26.968Z,99911.41
2023-04-11T16:24:56.370Z,99908.78
2023-04-11T16:27:27.646Z,99917.00
2023-04-11T16:29:59.728Z,99907.28
2023-04-11T16:32:27.702Z,99920.16
2023-04-11T16:35:04.295Z,99911.81
2023-04-11T16:37:31.041Z,99910.19
2023-04-11T16:39:57.966Z,99912.97
2023-04-11T16:42:34.296Z,99912.69
2023-04-11T16:45:01.221Z,99919.81
2023-04-11T16:47:27.946Z,99913.34
2023-04-11T16:49:56.990Z,99915.78
2023-04-11T16:52:26.663Z,99907.09
2023-04-11T16:54:55.610Z,99913.91
2023-04-11T16:57:24.302Z,99911.22
2023-04-11T16:59:51.647Z,99909.91
2023-04-11T17:02:25.536Z,99903.97
2023-04-11T17:04:59.791Z,99906.47
2023-04-11T17:07:28.460Z,99909.47
2023-04-11T17:09:57.626Z,99905.53
2023-04-11T17:12:27.114Z,99913.38
2023-04-11T17:14:56.795Z,99913.19
2023-04-11T17:17:23.460Z,99915.50
2023-04-11T17:19:51.435Z,99910.34
2023-04-11T17:22:18.341Z,99919.88
2023-04-11T17:24:44.992Z,99914.75
2023-04-11T17:27:11.768Z,99911.84
2023-04-11T17:29:40.836Z,99914.16
2023-04-11T17:32:07.666Z,99917.47
2023-04-11T17:34:34.373Z,99912.53
2023-04-11T17:37:01.171Z,99911.94
2023-04-11T17:39:27.989Z,99924.09
2023-04-11T17:42:02.043Z,99922.03
2023-04-11T17:44:28.729Z,99911.97
2023-04-11T17:46:55.732Z,99913.59
2023-04-11T17:49:24.454Z,99916.06
2023-04-11T17:51:58.991Z,99917.19
2023-04-11T17:54:26.248Z,99911.50
2023-04-11T17:56:53.192Z,99921.28
2023-04-11T17:59:21.015Z,99919.03
2023-04-11T18:01:47.911Z,99923.88
2023-04-11T18:04:15.343Z,99921.97
2023-04-11T18:06:42.677Z,99929.63
2023-04-11T18:09:09.365Z,99933.31
2023-04-11T18:11:36.340Z,99932.41
2023-04-11T18:14:03.151Z,99931.41
2023-04-11T18:16:29.831Z,99934.53
2023-04-11T18:18:56.856Z,99938.34
2023-04-11T18:21:23.490Z,99933.41
2023-04-11T18:23:50.142Z,99937.50
2023-04-11T18:26:16.830Z,99940.66
2023-04-11T18:28:43.476Z,99939.97
2023-04-11T18:31:10.433Z,99945.03
2023-04-11T18:33:40.996Z,99945.22
2023-04-11T18:36:09.876Z,99945.59
2023-04-11T18:38:36.563Z,99947.97
2023-04-11T18:41:06.610Z,99945.41
2023-04-11T18:43:34.342Z,99946.41
2023-04-11T18:46:01.832Z,99949.75
2023-04-11T18:48:28.475Z,99955.66
2023-04-11T18:50:59.744Z,99951.59
2023-04-11T18:53:28.319Z,99957.31
2023-04-11T18:55:54.919Z,99967.13
2023-04-11T18:58:24.203Z,99962.59
2023-04-11T19:00:52.838Z,99970.81
2023-04-11T19:03:19.792Z,99962.09
2023-04-11T19:05:47.000Z,99970.72
2023-04-11T19:08:13.805Z,99962.28
2023-04-11T19:10:40.516Z,99969.53
2023-04-11T19:13:07.262Z,99970.56
2023-04-11T19:15:33.873Z,99969.97
2023-04-11T19:18:00.790Z,99976.03
2023-04-11T19:20:28.171Z,99968.88
2023-04-11T19:22:54.889Z,99965.00
2023-04-11T19:25:21.845Z,99970.22
2023-04-11T19:27:49.051Z,99960.22
2023-04-11T19:30:15.830Z,99959.16
2023-04-11T19:32:43.585Z,99962.06
2023-04-11T19:35:11.096Z,99945.38
2023-04-11T19:37:38.055Z,99940.94
2023-04-11T19:40:11.002Z,99934.97
2023-04-11T19:42:39.727Z,99936.53
2023-04-11T19:45:08.597Z,99941.19
2023-04-11T19:47:35.683Z,99949.22
2023-04-11T19:50:02.482Z,99934.94
2023-04-11T19:52:29.352Z,99925.91
2023-04-11T19:54:56.644Z,99923.75
2023-04-11T19:57:24.866Z,99919.75
2023-04-11T19:59:51.587Z,99922.53
2023-04-11T20:02:18.626Z,99909.66
2023-04-11T20:04:45.961Z,99912.13
2023-04-11T20:07:13.199Z,99913.69
2023-04-11T20:09:39.957Z,99904.03
2023-04-11T20:12:07.240Z,99899.22
2023-04-11T20:14:34.159Z,99899.44
2023-04-11T20:17:00.888Z,99894.88
2023-04-11T20:19:29.809Z,99894.28
2023-04-11T20:21:56.620Z,99890.09
2023-04-11T20:24:23.961Z,99886.44
2023-04-11T20:26:51.239Z,99893.56
2023-04-11T20:29:18.133Z,99891.75
2023-04-11T20:31:44.924Z,99890.44
2023-04-11T20:34:11.779Z,99887.53
2023-04-11T20:36:38.851Z,99884.34
2023-04-11T20:39:06.296Z,99880.22
2023-04-11T20:41:33.113Z,99873.31
2023-04-11T20:43:59.893Z,99876.22
2023-04-11T20:46:29.833Z,99878.56
2023-04-11T20:48:56.776Z,99878.59
2023-04-11T20:51:25.074Z,99861.88
2023-04-11T20:53:51.888Z,99868.53
2023-04-11T20:56:18.508Z,99861.28
2023-04-11T20:58:46.526Z,99860.03
2023-04-11T21:01:13.620Z,99856.25
2023-04-11T21:03:42.400Z,99851.47
2023-04-11T21:06:10.261Z,99850.66
2023-04-11T21:08:37.849Z,99844.81
2023-04-11T21:11:05.723Z,99845.16
2023-04-11T21:13:32.404Z,99844.44
2023-04-11T21:15:59.275Z,99847.38
2023-04-11T21:18:25.965Z,99855.78
2023-04-11T21:20:52.630Z,99848.38
2023-04-11T21:23:19.280Z,99856.34
2023-04-11T21:25:45.977Z,99843.88
2023-04-11T21:28:12.723Z,99843.19
2023-04-11T21:30:39.669Z,99838.50
2023-04-11T21:33:06.500Z,99841.06
2023-04-11T21:35:33.246Z,99834.34
2023-04-11T21:37:59.995Z,99833.53
2023-04-11T21:40:26.712Z,99827.06
2023-04-11T21:42:53.356Z,99826.28
2023-04-11T21:45:19.971Z,99825.72
2023-04-11T21:47:46.866Z,99827.38
2023-04-11T21:50:13.589Z,99825.44
2023-04-11T21:52:40.298Z,99830.47
2023-04-11T21:55:09.102Z,99818.50
2023-04-11T21:57:36.005Z,99819.78
2023-04-11T22:00:03.856Z,99811.19
2023-04-11T22:02:38.760Z,99812.53
2023-04-11T22:05:08.742Z,99804.75
2023-04-11T22:07:46.201Z,99811.31
2023-04-11T22:10:13.000Z,99796.88
2023-04-11T22:12:40.624Z,99806.50
2023-04-11T22:15:08.266Z,99800.16
2023-04-11T22:17:37.213Z,99795.59
2023-04-11T22:20:06.681Z,99798.25
2023-04-11T22:22:33.383Z,99784.84
2023-04-11T22:25:00.211Z,99789.41
2023-04-11T22:27:27.291Z,99789.78
2023-04-11T22:29:57.593Z,99791.47
2023-04-11T22:32:24.349Z,99779.81
2023-04-11T22:34:51.139Z,99778.88
2023-04-11T22:37:17.931Z,99768.78
2023-04-11T22:39:44.548Z,99771.66
2023-04-11T22:42:11.693Z,99764.41
2023-04-11T22:44:38.385Z,99760.00
2023-04-11T22:47:07.017Z,99758.25
2023-04-11T22:49:40.695Z,99751.09
2023-04-11T22:52:14.825Z,99742.31
2023-04-11T22:54:42.653Z,99741.13
2023-04-11T22:57:09.673Z,99734.16
2023-04-11T22:59:36.613Z,99727.69
2023-04-11T23:02:03.383Z,99723.94
2023-04-11T23:04:31.566Z,99715.81
2023-04-11T23:06:58.409Z,99715.47
2023-04-11T23:09:25.246Z,99714.72
2023-04-11T23:11:52.361Z,99707.38
2023-04-11T23:14:21.054Z,99702.16
2023-04-11T23:16:48.090Z,99708.06
2023-04-11T23:19:15.050Z,99712.13
2023-04-11T23:21:42.171Z,99713.00
2023-04-11T23:24:09.870Z,99705.03
2023-04-11T23:26:37.129Z,99699.75
2023-04-11T23:29:03.870Z,99699.91
2023-04-11T23:31:31.613Z,99700.16
2023-04-11T23:33:58.841Z,99687.28
2023-04-11T23:36:27.467Z,99683.06
2023-04-11T23:38:54.182Z,99678.25
2023-04-11T23:41:20.860Z,99670.75
2023-04-11T23:43:49.532Z,99667.56
2023-04-11T23:46:18.185Z,99664.81
2023-04-11T23:48:46.850Z,99653.56
2023-04-11T23:51:13.817Z,99652.75
2023-04-11T23:53:40.594Z,99651.06
2023-04-11T23:56:07.813Z,99644.22
2023-04-11T23:58:34.761Z,99634.28
